Flight Track Log - Related Links

Times and Time Zones

All times are in EDT time to prevent confusion due to time zone crossing. See the CTL14 flight status page for this flight to view local times or setup timezone preferences in your user account.

Time Position Orientation Groundspeed Altitude Reporting Facility
EDT Latitude Longitude Course Direction KTS MPH feet Rate Location/Type
Tue 09:09:27 PM 39.2833 -85.9000 360° North 118 136 1,200  Level Indianapolis TRACON
Tue 09:10:15 PM 39.3167 -85.9000 360° North 141 162 2,000 923 Climbing Indianapolis TRACON
Tue 09:11:11 PM 39.3522 -85.9072 351° North 153 176 2,800 763 Climbing Indianapolis Center
Tue 09:12:13 PM 39.3978 -85.9200 348° North 167 192 3,500 732 Climbing Indianapolis Center
Tue 09:13:14 PM 39.4225 -85.9647 306° West 158 182 4,300 836 Climbing Indianapolis Center
Tue 09:14:15 PM 39.4408 -86.0075 299° West 141 162 5,200 738 Climbing Indianapolis Center
Tue 09:15:16 PM 39.4606 -86.0489 302° West 135 155 5,800 390 Climbing Indianapolis Center
Tue 09:16:18 PM 39.4761 -86.0950 294° West 136 157 6,000 98 Climbing Indianapolis Center
Tue 09:17:19 PM 39.4969 -86.1447 299° West 150 173 6,000  Level Indianapolis Center
Tue 09:18:20 PM 39.5225 -86.2019 300° West 155 178 6,000  Level Indianapolis Center
Tue 09:19:21 PM 39.5428 -86.2531 297° West 157 181 6,000  Level Indianapolis Center
Tue 09:20:23 PM 39.5567 -86.3039 290° West 152 175 6,000 -49 Level Indianapolis Center
Tue 09:21:24 PM 39.5789 -86.3544 300° West 159 183 5,900 -49 Descending Indianapolis Center
Tue 09:22:25 PM 39.5997 -86.4053 298° West 158 182 5,900 49 Level Indianapolis Center
Tue 09:23:26 PM 39.6197 -86.4561 297° West 156 180 6,000 49 Climbing Indianapolis Center
Tue 09:24:28 PM 39.6389 -86.5072 296° West 156 180 6,000  Level Indianapolis Center
Tue 09:25:29 PM 39.6619 -86.5575 301° West 160 184 6,000 -49 Level Indianapolis Center
Tue 09:26:30 PM 39.6778 -86.6097 292° West 156 180 5,900 -49 Descending Indianapolis Center
Tue 09:27:31 PM 39.6978 -86.6622 296° West 157 181 5,900  Level Indianapolis Center
Tue 09:28:33 PM 39.7169 -86.7147 295° West 160 184 5,900  Level Indianapolis Center
Tue 09:29:34 PM 39.7353 -86.7650 295° West 156 180 5,900 49 Level Indianapolis Center
Tue 09:30:35 PM 39.7539 -86.8139 296° West 151 174 6,000  Climbing Indianapolis Center
Tue 09:31:36 PM 39.7728 -86.8625 297° West 149 171 5,900  Descending Indianapolis Center
Tue 09:32:37 PM 39.7914 -86.9142 295° West 155 178 6,000 98 Climbing Indianapolis Center
Tue 09:33:39 PM 39.8131 -86.9653 299° West 159 183 6,100 -49 Climbing Indianapolis Center
Tue 09:34:40 PM 39.8367 -87.0147 302° West 160 184 5,900 -98 Descending Indianapolis Center
Tue 09:35:41 PM 39.8594 -87.0717 298° West 155 178 5,900 49 Level Indianapolis Center
Tue 09:36:43 PM 39.8783 -87.1228 296° West 153 176 6,000  Climbing Indianapolis Center
Tue 09:37:44 PM 39.8981 -87.1764 296° West 160 184 5,900 -49 Descending Indianapolis Center
Tue 09:38:45 PM 39.9183 -87.2286 297° West 161 185 5,900 49 Level Indianapolis Center
Tue 09:39:46 PM 39.9386 -87.2817 297° West 163 188 6,000 49 Climbing Indianapolis Center
Tue 09:40:48 PM 39.9625 -87.3339 301° West 165 190 6,000  Level Indianapolis Center
Tue 09:41:49 PM 39.9758 -87.3900 287° West 163 188 6,000  Level Indianapolis Center
Tue 09:42:51 PM 39.9947 -87.4425 295° West 161 185 6,000 -49 Level Indianapolis Center
Tue 09:43:52 PM 40.0119 -87.4928 294° West 156 180 5,900 -98 Descending Indianapolis Center
Tue 09:44:53 PM 40.0319 -87.5408 299° West 152 175 5,800 -195 Descending Indianapolis Center
Tue 09:45:55 PM 40.0519 -87.5894 298° West 151 174 5,500 -537 Descending Indianapolis Center
Tue 09:46:56 PM 40.0706 -87.6450 294° West 159 183 4,700 -689 Descending Indianapolis Center
Tue 09:47:57 PM 40.0867 -87.7161 287° West 169 194 4,100 -203 Descending Indianapolis Center
Tue 09:50:23 PM 40.1075 -87.8419 282° West 162 186 4,000  Descending Chicago Center
Tue 09:51:24 PM 40.1172 -87.9000 282° West 160 184 4,100  Climbing Chicago Center
Tue 09:52:26 PM 40.1261 -87.9675 280° West 159 183 4,000 -48 Descending Chicago Center
Tue 09:53:28 PM 40.1353 -88.0239 282° West 159 183 4,000  Level Chicago Center
Tue 09:54:29 PM 40.1472 -88.0803 286° West 160 184 4,000  Level Chicago Center
Tue 09:55:31 PM 40.1564 -88.1378 282° West 161 185 4,000  Level Chicago Center
Tue 09:56:33 PM 40.1675 -88.1975 284° West 165 190 4,000  Level Chicago Center
Tue 09:57:34 PM 40.1803 -88.2633 284° West 167 192 4,000  Level Chicago Center
Tue 09:58:36 PM 40.1903 -88.3217 283° West 167 192 4,000  Level Chicago Center
Tue 09:59:38 PM 40.2042 -88.3828 287° West 165 190 4,000 -49 Level Chicago Center
Tue 10:00:39 PM 40.2358 -88.4258 314° West 164 189 3,900  Descending Chicago Center
Tue 10:01:41 PM 40.2658 -88.4711 311° West 165 190 4,000 48 Climbing Chicago Center
Tue 10:02:43 PM 40.2914 -88.5133 308° West 162 186 4,000 -390 Level Chicago Center
Tue 10:03:44 PM 40.3333 -88.5669 316° Northwest 172 198 3,200 -439 Descending Chicago Center
Tue 10:04:46 PM 40.3617 -88.6150 308° West 170 196 3,100 -48 Descending Chicago Center
Tue 10:05:48 PM 40.3869 -88.6625 305° West 161 185 3,100 -49 Level Chicago Center
Tue 10:06:49 PM 40.4131 -88.7092 306° West 160 184 3,000 -49 Descending Chicago Center
Tue 10:07:51 PM 40.4364 -88.7531 305° West 151 174 3,000 -244 Level Chicago Center
Tue 10:08:52 PM 40.4536 -88.8089 292° West 159 183 2,500 -390 Descending Chicago Center
Tue 10:09:54 PM 40.4678 -88.8600 290° West 160 184 2,200 -290 Descending Chicago Center
Tue 10:11:00 PM 40.4667 -88.9000 303° West  Level FlightAware Approximate
Tue 10:18:00 PM 40.4771 -88.9159 303° West  Level Estimated
Tue 10:19:00 PM 40.4771 -88.9159 303° West  Level Estimated
Tue 10:20:00 PM 40.4771 -88.9159 303° West  Level Estimated

Login

Don't have an account? Register now (free) for customized features, flight alerts, and more!